Whitfield, Mississippi
Current Conditions -  °F | °C
As of 2:54 PM on Tuesday 27 Jan 2015 (Local Time) from KJAN Reporting Station
Clear Clear  
Wind Chill: 68°   Ceiling: Unl
Heat Index: 68°   Visibility: 10mi
Dew Point: 29°   Wind: 12mph
Humidity: 23%   Direction: 310°NW
Pressure: 30.08"   Gusts: NA
Location:  32.24°N, 90.07°W
Report Text: KJAN 272054Z 31010KT 10SM CLR 20/M02 A3008 RMK AO2 SLP183 T02001017 55011
Loading
Personal Weather Stations






























Interactive Weather Map New forecast layout! Learn more

10-Day Weather Forecast

Advertisements
Track Severe Weather on mobile